Knight Air

Knight Air knights of the virtual airways


 METAR AND TAF INFORMATION
METAR FOR ESNG
ADDS - METARS form results

(2005 UTC 15 June 2021)
Data provider http://aviationweather.gov/metar/data/
 
METAR text: ESNG 151950Z AUTO 28015KT 9999 OVC048/// 08/01 Q1002
Conditions at: ESNG (GALLIVARE (PRIVA, SE) observed 1950 UTC 15 June 2021
Temperature: 8.0°C (46°F)
Dewpoint: 1.0°C (34°F) [RH = 61%]
Pressure (altimeter): 29.59 inches Hg (1002.0 mb)
Winds: from the W (280 degrees) at 17 MPH (15 knots; 7.7 m/s)
Visibility: 6 or more miles (10+ km)
Ceiling: 4800 feet AGL
Clouds: overcast cloud deck at 4800 feet AGL
Weather: no significant weather observed at this time

METAR text: ESNG 151920Z AUTO 29013KT 9999 FEW046/// BKN130/// 08/01 Q1002
Conditions at: ESNG (GALLIVARE (PRIVA, SE) observed 1920 UTC 15 June 2021
Temperature: 8.0°C (46°F)
Dewpoint: 1.0°C (34°F) [RH = 61%]
Pressure (altimeter): 29.59 inches Hg (1002.0 mb)
Winds: from the WNW (290 degrees) at 15 MPH (13 knots; 6.7 m/s)
Visibility: 6 or more miles (10+ km)
Ceiling: 13000 feet AGL
Clouds: few clouds at 4600 feet AGL
broken clouds at 13000 feet AGL
Weather: no significant weather observed at this time

Forecast for: ESNG (GALLIVARE (PRIVA, SE)
Text: TAF ESNG 151430Z 1515/1518 29012KT 9999 SCT040
Forecast period: 1500 to 1800 UTC 15 June 2021
Forecast type: FROM: standard forecast or significant change
Winds: from the WNW (290 degrees) at 14 MPH (12 knots; 6.2 m/s)
Visibility: 6 or more miles (10+ km)
Ceiling: at least 12,000 feet AGL
Clouds: scattered clouds at 4000 feet AGL
Weather: no significant weather forecast for this period
Text: TEMPO 1515/1518 SHRA BKN040CB
Forecast period: 1500 to 1800 UTC 15 June 2021
Forecast type: TEMPORARY: The following changes expected for less than half the time period
Visibility: missing
Ceiling: 4000 feet AGL
Clouds: broken clouds at 4000 feet AGL
Weather: SHRA  (rain showers)

 AIRPORT MAP

 RUNWAY INFORMATION
Runway 12 Runway length 5623 ft Runway width 148 ft
Runway elevation 1027 ft Runway displaced threshold 0 ft Runway heading 118
Runway 30 Runway length 5623 ft Runway width 148 ft
Runway elevation 970 ft Runway displaced threshold 0 ft Runway heading 298

 AIRPORT FREQUENCIES
Type AFIS Name AFIS Frequency 122.1 MHZ

 AIRPORT NEAR NAVIGATION AIDS
Type NDB Name Gallivare Frequency 325 KHZ